Time;durP1;ratioP1;P1;durP2;ratioP2;P2;SDS_P1;SDS_P2;PMS_P1;PMS_P2;Temp;Humidity;BMP_temperature;BMP_pressure;BME280_temperature;BME280_humidity;BME280_pressure;Samples;Min_cycle;Max_cycle;Signal;HPM_P1;HPM_P2
2022/01/31 00:02:13;;;;;;;5.12;3.58;;;;;;;13.34;45.04;98729.88;1652912;86;21014;-62
2022/01/31 00:04:40;;;;;;;6.42;4.65;;;;;;;13.39;44.88;98728.11;1653189;86;20971;-61
2022/01/31 00:07:07;;;;;;;5.60;3.87;;;;;;;13.50;44.72;98718.59;1652666;85;21035;-71
2022/01/31 00:09:35;;;;;;;6.17;3.67;;;;;;;13.27;44.74;98716.94;1651491;86;20976;-60
2022/01/31 00:12:09;;;;;;;5.58;3.55;;;;;;;13.38;44.70;98717.38;1652801;86;22122;-61
2022/01/31 00:17:01;;;;;;;5.72;4.08;;;;;;;13.14;45.14;98698.89;1653145;86;20955;-61
2022/01/31 00:19:28;;;;;;;6.72;3.90;;;;;;;13.07;45.24;98700.38;1651793;85;20963;-72
2022/01/31 00:21:55;;;;;;;4.80;3.40;;;;;;;13.23;44.82;98698.82;1652897;85;21137;-60
2022/01/31 00:24:21;;;;;;;5.05;3.77;;;;;;;13.25;44.87;98688.11;1653146;86;21145;-61
2022/01/31 00:26:50;;;;;;;5.12;3.77;;;;;;;13.13;45.14;98687.64;1653068;86;21189;-60
2022/01/31 00:29:17;;;;;;;5.65;3.80;;;;;;;12.88;45.46;98697.19;1652804;86;21012;-71
2022/01/31 00:31:45;;;;;;;4.55;3.20;;;;;;;12.73;45.91;98700.03;1652174;86;21023;-61
2022/01/31 00:34:11;;;;;;;6.25;4.22;;;;;;;12.62;46.31;98707.72;1652352;86;21440;-60
2022/01/31 00:36:38;;;;;;;5.80;3.58;;;;;;;12.47;46.51;98704.03;1641039;86;21112;-61
2022/01/31 00:39:04;;;;;;;4.42;3.17;;;;;;;12.83;46.00;98710.16;1652515;86;21031;-61
2022/01/31 00:41:31;;;;;;;5.72;3.92;;;;;;;13.03;45.63;98704.50;1651716;85;21053;-63
2022/01/31 00:44:02;;;;;;;5.58;3.55;;;;;;;12.86;45.85;98712.31;1652542;86;21471;-64
2022/01/31 00:46:35;;;;;;;7.00;4.62;;;;;;;12.94;45.80;98708.52;1652546;85;21162;-59
2022/01/31 00:48:55;;;;;;;5.05;3.65;;;;;;;13.16;45.26;98696.84;1651060;86;21120;-60
2022/01/31 00:51:22;;;;;;;5.28;3.52;;;;;;;13.10;45.46;98692.55;1651380;86;20924;-71
2022/01/31 00:53:49;;;;;;;5.22;3.67;;;;;;;13.11;45.32;98691.55;1652162;86;21193;-60
2022/01/31 00:56:15;;;;;;;5.08;3.87;;;;;;;13.39;44.96;98689.37;1652647;86;21154;-60
2022/01/31 00:58:42;;;;;;;7.30;3.70;;;;;;;13.42;44.85;98701.98;1652618;86;20975;-60
2022/01/31 01:01:08;;;;;;;6.12;4.10;;;;;;;13.38;44.58;98699.58;1652244;86;21142;-72
2022/01/31 01:03:35;;;;;;;6.03;2.87;;;;;;;13.33;44.66;98697.68;1652364;86;21189;-61
2022/01/31 01:06:03;;;;;;;5.08;3.80;;;;;;;12.99;45.13;98692.11;1651951;86;21019;-61
2022/01/31 01:08:29;;;;;;;6.45;4.05;;;;;;;13.04;45.22;98706.59;1652749;86;21107;-59
2022/01/31 01:10:56;;;;;;;5.42;3.50;;;;;;;13.16;45.02;98703.38;1652637;86;21077;-71
2022/01/31 01:13:23;;;;;;;4.60;2.98;;;;;;;13.20;44.94;98711.03;1652159;86;22973;-60
2022/01/31 01:15:50;;;;;;;6.35;4.00;;;;;;;13.21;44.90;98702.15;1652571;86;20896;-71
2022/01/31 01:18:17;;;;;;;6.08;3.92;;;;;;;13.25;44.90;98699.88;1652399;86;21028;-60
2022/01/31 01:20:44;;;;;;;6.25;4.00;;;;;;;13.29;44.86;98703.60;1652577;86;21024;-60
2022/01/31 01:23:12;;;;;;;5.72;3.85;;;;;;;13.16;45.10;98706.00;1652014;85;21062;-60
2022/01/31 01:25:38;;;;;;;6.22;4.20;;;;;;;13.41;44.71;98708.75;1652849;86;21851;-61
2022/01/31 01:28:05;;;;;;;6.25;4.30;;;;;;;13.31;44.83;98704.96;1646651;86;21512;-60
2022/01/31 01:30:32;;;;;;;7.03;4.33;;;;;;;13.14;45.15;98697.58;1649294;86;22410;-61
2022/01/31 01:33:08;;;;;;;6.47;3.67;;;;;;;13.31;44.75;98693.19;1652783;85;21648;-60
2022/01/31 01:35:37;;;;;;;6.95;4.70;;;;;;;13.12;44.95;98687.37;1651552;86;21492;-60
2022/01/31 01:38:04;;;;;;;6.92;4.70;;;;;;;12.70;45.79;98701.31;1652003;86;21859;-63
2022/01/31 01:40:28;;;;;;;6.58;4.30;;;;;;;12.76;45.83;98696.44;1652185;86;21082;-62
2022/01/31 01:42:54;;;;;;;5.95;3.95;;;;;;;11.96;47.24;98695.18;1652476;86;20974;-70
2022/01/31 01:45:21;;;;;;;6.03;3.60;;;;;;;11.97;47.40;98685.01;1652448;86;20980;-62
2022/01/31 01:47:48;;;;;;;7.47;4.28;;;;;;;12.07;47.16;98687.84;1651990;86;21011;-60
2022/01/31 01:50:15;;;;;;;5.53;4.08;;;;;;;11.84;47.70;98690.77;1651941;86;22359;-60
2022/01/31 01:52:42;;;;;;;6.53;4.00;;;;;;;11.70;48.25;98688.08;1652586;86;22344;-60
2022/01/31 01:55:09;;;;;;;6.15;4.50;;;;;;;11.88;48.05;98690.59;1652439;86;21425;-62
2022/01/31 01:57:36;;;;;;;6.85;5.03;;;;;;;11.95;48.12;98681.85;1626079;86;21071;-61
2022/01/31 02:00:08;;;;;;;7.10;4.10;;;;;;;11.96;47.86;98689.96;1652303;86;20923;-68
2022/01/31 02:02:36;;;;;;;5.45;3.90;;;;;;;11.95;47.88;98680.55;1652797;86;21146;-62
2022/01/31 02:05:05;;;;;;;4.37;2.98;;;;;;;11.83;47.90;98679.23;1650593;86;21602;-73
2022/01/31 02:07:37;;;;;;;5.08;3.47;;;;;;;12.07;47.75;98680.00;1652137;86;21102;-62
2022/01/31 02:10:07;;;;;;;6.03;4.05;;;;;;;11.64;48.55;98677.27;1650359;86;21007;-72
2022/01/31 02:12:44;;;;;;;7.72;4.90;;;;;;;11.61;48.59;98675.11;1652010;86;21600;-63
2022/01/31 02:15:13;;;;;;;6.55;4.33;;;;;;;11.66;49.00;98676.00;1651509;86;21164;-60
2022/01/31 02:17:42;;;;;;;8.03;4.75;;;;;;;11.99;48.26;98672.53;1648702;86;21126;-60
2022/01/31 02:20:11;;;;;;;7.80;5.15;;;;;;;11.89;48.42;98670.49;1651809;86;21038;-59
2022/01/31 02:22:38;;;;;;;7.15;4.97;;;;;;;12.16;47.86;98666.87;1652920;86;21090;-61
2022/01/31 02:25:13;;;;;;;7.10;4.35;;;;;;;11.93;48.27;98661.99;1650864;86;21007;-60
2022/01/31 02:28:00;;;;;;;8.30;5.05;;;;;;;11.75;48.58;98660.02;1649618;86;21080;-61
2022/01/31 02:30:26;;;;;;;6.42;4.80;;;;;;;11.67;48.24;98661.95;1648105;85;21140;-61
2022/01/31 02:32:53;;;;;;;7.25;4.65;;;;;;;11.96;48.02;98665.16;1652129;85;20951;-61
2022/01/31 02:35:20;;;;;;;6.37;4.35;;;;;;;11.82;48.21;98657.56;1652778;86;21008;-61
2022/01/31 02:37:46;;;;;;;6.17;4.67;;;;;;;11.98;48.07;98664.42;1652749;86;20896;-59
2022/01/31 02:40:21;;;;;;;6.35;4.58;;;;;;;11.91;48.29;98661.41;1651947;86;21085;-62
2022/01/31 02:42:51;;;;;;;6.78;4.85;;;;;;;11.79;48.40;98646.27;1645514;86;21501;-59
2022/01/31 02:45:18;;;;;;;7.08;4.50;;;;;;;11.81;48.09;98635.06;1650685;86;21425;-59
2022/01/31 02:47:51;;;;;;;8.80;4.70;;;;;;;11.62;48.45;98636.23;1650817;86;21011;-61
2022/01/31 02:50:15;;;;;;;6.47;4.80;;;;;;;11.67;48.56;98636.36;1649577;86;21075;-70
2022/01/31 02:52:47;;;;;;;7.47;5.10;;;;;;;11.64;48.59;98634.20;1650673;86;21140;-62
2022/01/31 02:55:10;;;;;;;8.10;5.45;;;;;;;11.58;48.67;98637.20;1651306;86;21106;-60
2022/01/31 02:57:37;;;;;;;7.92;5.28;;;;;;;11.53;48.50;98638.41;1647671;86;21928;-61
2022/01/31 03:00:06;;;;;;;8.53;6.55;;;;;;;11.66;48.62;98634.75;1625569;86;21025;-59
2022/01/31 03:02:34;;;;;;;8.93;7.00;;;;;;;11.51;48.67;98630.52;1647875;86;20987;-63
2022/01/31 03:05:01;;;;;;;8.75;6.55;;;;;;;11.64;48.54;98629.77;1648960;86;21137;-58
2022/01/31 03:07:30;;;;;;;8.45;6.60;;;;;;;11.35;48.81;98630.70;1651376;86;20986;-59
2022/01/31 03:09:56;;;;;;;8.75;6.55;;;;;;;11.54;48.75;98634.77;1644673;86;21094;-59
2022/01/31 03:12:25;;;;;;;9.43;7.25;;;;;;;11.39;48.92;98635.23;1636174;85;21070;-60
2022/01/31 03:14:53;;;;;;;12.75;7.95;;;;;;;11.39;49.08;98633.14;1635461;86;21163;-70
2022/01/31 03:17:35;;;;;;;11.63;7.67;;;;;;;11.16;49.67;98622.20;1632588;86;21120;-61
2022/01/31 03:20:02;;;;;;;9.93;7.10;;;;;;;11.27;49.60;98625.83;1641405;86;21078;-61
2022/01/31 03:22:30;;;;;;;10.05;7.35;;;;;;;11.39;49.38;98637.84;1635488;85;21114;-59
2022/01/31 03:24:57;;;;;;;13.05;9.10;;;;;;;11.36;49.41;98631.77;1634295;86;21157;-63
2022/01/31 03:27:24;;;;;;;13.40;9.35;;;;;;;11.44;49.30;98631.45;1635927;86;22118;-59
2022/01/31 03:29:51;;;;;;;12.95;9.15;;;;;;;11.58;49.21;98622.84;1643175;86;21576;-59
2022/01/31 03:32:17;;;;;;;15.18;9.65;;;;;;;11.56;49.14;98613.68;1636168;86;21066;-62
2022/01/31 03:34:44;;;;;;;14.45;9.60;;;;;;;11.02;50.28;98615.61;1636095;86;21102;-69
2022/01/31 03:37:10;;;;;;;13.62;9.65;;;;;;;10.94;50.73;98610.22;1637480;86;21083;-60
2022/01/31 03:39:37;;;;;;;15.78;9.48;;;;;;;10.77;50.86;98611.40;1634096;86;21121;-62
2022/01/31 03:42:05;;;;;;;12.60;8.63;;;;;;;10.95;50.77;98611.31;1639467;86;21572;-58
2022/01/31 03:44:32;;;;;;;12.18;8.25;;;;;;;11.11;50.40;98608.55;1633573;86;21541;-59
2022/01/31 03:46:59;;;;;;;13.70;9.10;;;;;;;10.96;50.77;98612.11;1636340;86;21709;-61
2022/01/31 03:49:25;;;;;;;11.95;8.45;;;;;;;10.85;51.08;98616.28;1636640;86;21130;-64
2022/01/31 03:51:54;;;;;;;11.05;8.28;;;;;;;10.95;51.01;98617.84;1634148;86;21521;-63
2022/01/31 03:54:22;;;;;;;10.65;8.10;;;;;;;11.61;49.77;98615.88;1637175;86;21115;-70
2022/01/31 03:56:49;;;;;;;10.85;7.60;;;;;;;11.58;49.35;98612.92;1644563;86;20944;-69
2022/01/31 03:59:17;;;;;;;12.23;7.87;;;;;;;11.71;48.96;98621.83;1634061;86;21102;-59
2022/01/31 04:01:44;;;;;;;11.73;7.80;;;;;;;11.81;48.80;98621.22;1670308;78;21125;-59
2022/01/31 04:04:13;;;;;;;13.50;8.20;;;;;;;11.88;48.19;98618.79;1679623;84;21132;-64
2022/01/31 04:06:40;;;;;;;14.33;8.28;;;;;;;11.73;48.25;98612.45;1678718;85;21383;-66
2022/01/31 04:09:07;;;;;;;10.13;6.58;;;;;;;11.85;48.06;98620.55;1679422;84;22424;-61
2022/01/31 04:11:33;;;;;;;9.28;6.55;;;;;;;11.32;48.82;98635.86;1679216;85;21094;-59
2022/01/31 04:14:00;;;;;;;10.15;7.20;;;;;;;11.55;48.49;98629.03;1680153;84;21521;-60
2022/01/31 04:16:26;;;;;;;10.45;7.03;;;;;;;11.27;48.90;98622.71;1680573;85;22256;-62
2022/01/31 04:18:53;;;;;;;8.70;6.42;;;;;;;11.35;48.83;98623.67;1677571;85;21121;-68
2022/01/31 04:21:21;;;;;;;7.95;6.40;;;;;;;11.17;49.36;98631.12;1679210;85;21410;-59
2022/01/31 04:23:50;;;;;;;9.38;7.17;;;;;;;11.10;49.14;98621.30;1678751;84;21087;-60
2022/01/31 04:26:18;;;;;;;10.03;6.80;;;;;;;11.01;49.55;98618.73;1679405;85;21082;-60
2022/01/31 04:28:47;;;;;;;13.80;7.15;;;;;;;10.91;49.54;98618.48;1679192;85;21048;-71
2022/01/31 04:33:48;;;;;;;12.03;7.85;;;;;;;10.71;49.93;98585.71;1679424;85;21656;-61
2022/01/31 04:36:15;;;;;;;10.40;7.45;;;;;;;10.66;49.77;98593.93;1679257;85;21080;-71
2022/01/31 04:38:42;;;;;;;11.08;7.65;;;;;;;10.51;50.14;98598.77;1679351;84;20988;-60
2022/01/31 04:41:09;;;;;;;11.12;6.85;;;;;;;10.03;51.08;98586.06;1679347;85;21075;-60
2022/01/31 04:43:35;;;;;;;10.40;7.12;;;;;;;10.03;51.32;98579.55;1670431;85;21461;-59
2022/01/31 04:46:05;;;;;;;10.50;7.00;;;;;;;10.03;51.53;98580.06;1669767;85;21048;-60
2022/01/31 04:48:32;;;;;;;9.15;6.85;;;;;;;10.20;51.40;98570.12;1665139;85;21025;-73
2022/01/31 04:50:58;;;;;;;9.53;6.95;;;;;;;10.18;51.51;98568.73;1669579;85;21597;-60
2022/01/31 04:53:24;;;;;;;10.00;6.10;;;;;;;10.03;51.55;98566.53;1669736;85;21012;-61
2022/01/31 04:55:51;;;;;;;9.55;7.15;;;;;;;10.23;51.57;98571.49;1669222;85;21142;-60
2022/01/31 04:58:17;;;;;;;10.65;6.80;;;;;;;10.23;51.54;98570.19;1670238;85;21027;-60
2022/01/31 05:00:44;;;;;;;8.00;5.60;;;;;;;10.34;51.45;98572.55;1662999;85;21131;-75
2022/01/31 05:03:15;;;;;;;8.80;6.12;;;;;;;10.34;51.07;98565.55;1669291;85;22389;-60
2022/01/31 05:05:41;;;;;;;9.83;6.92;;;;;;;10.42;51.33;98576.95;1635275;87;21094;-61
2022/01/31 05:08:08;;;;;;;9.23;7.12;;;;;;;10.55;51.00;98583.77;1639201;87;21076;-63
2022/01/31 05:10:42;;;;;;;11.80;6.90;;;;;;;10.46;50.87;98575.48;1638926;87;21062;-64
2022/01/31 05:13:04;;;;;;;9.78;7.40;;;;;;;10.76;50.47;98589.45;1633379;87;20962;-62
2022/01/31 05:15:32;;;;;;;10.48;6.55;;;;;;;10.31;51.07;98588.64;1633545;87;22105;-62
2022/01/31 05:17:59;;;;;;;8.50;5.97;;;;;;;9.79;51.49;98583.07;1638183;87;21145;-67
2022/01/31 05:20:26;;;;;;;10.53;7.12;;;;;;;9.41;54.33;98589.30;1607397;88;21173;-62
2022/01/31 05:22:53;;;;;;;11.90;7.08;;;;;;;9.97;53.27;98596.06;1654712;85;21525;-77
2022/01/31 05:25:19;;;;;;;10.50;6.85;;;;;;;10.08;53.04;98588.02;1631518;87;21434;-74
2022/01/31 05:27:45;;;;;;;9.90;6.70;;;;;;;10.16;52.72;98574.69;1624006;87;21120;-59
2022/01/31 05:30:12;;;;;;;10.63;6.28;;;;;;;10.19;52.48;98588.06;1626025;87;21114;-61
2022/01/31 05:32:38;;;;;;;12.25;7.08;;;;;;;10.24;52.48;98591.30;1627185;87;21544;-59
2022/01/31 05:35:06;;;;;;;10.43;6.65;;;;;;;10.63;51.87;98587.34;1590692;88;21060;-66
2022/01/31 05:37:35;;;;;;;12.18;7.47;;;;;;;10.65;51.72;98591.84;1627951;87;21606;-70
2022/01/31 05:40:03;;;;;;;10.55;7.17;;;;;;;10.91;51.50;98608.88;1613342;87;22114;-60
2022/01/31 05:42:31;;;;;;;22.65;15.03;;;;;;;11.06;51.24;98614.14;1627799;87;21204;-60
2022/01/31 05:44:58;;;;;;;21.73;14.53;;;;;;;11.21;50.69;98630.13;1627157;87;21583;-72
2022/01/31 05:47:24;;;;;;;10.95;6.83;;;;;;;11.06;50.86;98636.30;1598110;88;21137;-62
2022/01/31 05:49:50;;;;;;;9.58;7.05;;;;;;;11.09;50.60;98625.42;1585570;88;21166;-60
2022/01/31 05:52:16;;;;;;;9.48;6.70;;;;;;;11.22;50.21;98619.20;1638177;87;21145;-61
2022/01/31 05:54:43;;;;;;;11.03;6.33;;;;;;;11.14;50.36;98623.74;1636570;87;22401;-62
2022/01/31 05:57:09;;;;;;;10.05;6.40;;;;;;;11.14;50.21;98606.80;1595511;88;21149;-64
2022/01/31 05:59:40;;;;;;;10.32;6.30;;;;;;;10.94;50.48;98614.92;1597524;87;21125;-73
2022/01/31 06:02:07;;;;;;;11.63;5.75;;;;;;;10.91;50.68;98607.58;1576452;88;21274;-60
2022/01/31 06:04:34;;;;;;;8.93;6.35;;;;;;;11.14;50.27;98602.09;1597844;88;21018;-74
2022/01/31 06:07:03;;;;;;;9.48;5.53;;;;;;;11.22;49.60;98590.00;1595703;88;21061;-65
2022/01/31 06:09:32;;;;;;;9.18;6.30;;;;;;;11.31;49.52;98597.76;1594819;88;21804;-70
2022/01/31 06:12:01;;;;;;;8.80;5.60;;;;;;;11.36;49.48;98595.25;1582943;88;21139;-62
2022/01/31 06:14:27;;;;;;;11.20;7.03;;;;;;;11.41;49.37;98594.06;1597299;88;21036;-63
2022/01/31 06:16:53;;;;;;;10.72;6.53;;;;;;;11.58;49.12;98602.48;1581422;88;21066;-64
2022/01/31 06:19:20;;;;;;;9.68;6.72;;;;;;;11.68;48.67;98604.01;1597903;87;21540;-61
2022/01/31 06:21:46;;;;;;;9.23;6.67;;;;;;;11.58;48.54;98608.50;1602586;88;21197;-65
2022/01/31 06:24:14;;;;;;;9.10;6.42;;;;;;;11.37;49.19;98611.20;1597570;88;21017;-60
2022/01/31 06:26:42;;;;;;;10.00;5.72;;;;;;;11.28;49.15;98617.77;1594162;88;21125;-59
2022/01/31 06:29:16;;;;;;;8.28;5.70;;;;;;;11.30;49.04;98605.31;1625205;87;21007;-61
2022/01/31 06:31:44;;;;;;;9.65;6.65;;;;;;;11.36;49.06;98616.12;1602441;88;21308;-62
2022/01/31 06:34:11;;;;;;;10.08;6.17;;;;;;;11.29;49.38;98623.29;1626647;87;21105;-61
2022/01/31 06:36:38;;;;;;;10.80;6.65;;;;;;;11.26;49.24;98614.61;1592804;88;21174;-60
2022/01/31 06:39:04;;;;;;;9.78;6.10;;;;;;;11.45;49.11;98600.41;1624270;85;21164;-59
2022/01/31 06:41:31;;;;;;;8.80;5.80;;;;;;;11.20;49.26;98606.37;1628450;87;21131;-60
2022/01/31 06:43:58;;;;;;;8.08;6.12;;;;;;;10.62;50.86;98594.89;1602253;88;21118;-70
2022/01/31 06:46:24;;;;;;;9.73;6.67;;;;;;;10.84;50.51;98592.55;1632317;87;21130;-60
2022/01/31 06:48:51;;;;;;;8.95;6.53;;;;;;;10.94;50.34;98603.19;1604134;88;21126;-60
2022/01/31 06:51:18;;;;;;;9.28;5.85;;;;;;;10.80;50.48;98597.14;1596255;88;21557;-60
2022/01/31 06:53:48;;;;;;;11.53;6.92;;;;;;;10.89;50.44;98612.20;1588978;88;21475;-62
2022/01/31 06:56:13;;;;;;;9.58;6.62;;;;;;;11.16;49.91;98611.77;1593726;88;21137;-63
2022/01/31 06:58:40;;;;;;;10.82;7.12;;;;;;;10.95;50.25;98604.80;1584285;90;21152;-60
2022/01/31 07:01:06;;;;;;;9.35;7.10;;;;;;;11.13;49.85;98609.61;1601076;88;21540;-60
2022/01/31 07:03:36;;;;;;;11.28;7.15;;;;;;;11.05;50.05;98612.56;1601961;86;21165;-59
2022/01/31 07:06:03;;;;;;;10.80;7.08;;;;;;;10.97;50.03;98612.38;1624220;87;20972;-60
2022/01/31 07:08:30;;;;;;;8.90;6.17;;;;;;;11.04;49.98;98621.41;1625085;86;21125;-65
2022/01/31 07:10:57;;;;;;;10.50;7.03;;;;;;;11.08;49.92;98619.42;1628757;87;21120;-60
2022/01/31 07:13:36;;;;;;;9.23;6.50;;;;;;;10.67;50.80;98622.88;1625394;87;21102;-64
2022/01/31 07:15:52;;;;;;;11.70;7.20;;;;;;;10.67;51.02;98618.97;1624522;87;21024;-71
2022/01/31 07:18:19;;;;;;;11.57;7.95;;;;;;;11.21;49.95;98601.44;1624866;87;21198;-59
2022/01/31 07:20:50;;;;;;;10.90;7.30;;;;;;;11.12;49.85;98610.12;1626238;87;21162;-60
2022/01/31 07:23:18;;;;;;;10.75;7.50;;;;;;;11.02;50.10;98595.54;1624714;87;21187;-59
2022/01/31 07:25:42;;;;;;;9.83;7.42;;;;;;;11.03;50.19;98601.58;1621750;86;21348;-67
2022/01/31 07:28:10;;;;;;;10.03;7.53;;;;;;;11.08;50.44;98599.86;1619563;87;21170;-70
2022/01/31 07:30:38;;;;;;;10.18;6.75;;;;;;;10.89;50.78;98599.69;1619872;86;21189;-62
2022/01/31 07:33:07;;;;;;;11.97;7.47;;;;;;;11.09;50.54;98600.66;1622308;87;21540;-62
2022/01/31 07:35:33;;;;;;;10.40;7.05;;;;;;;11.24;50.26;98594.98;1614026;87;21131;-69
2022/01/31 07:38:00;;;;;;;11.20;7.25;;;;;;;11.12;50.34;98596.30;1620789;86;21135;-61
2022/01/31 07:40:26;;;;;;;11.05;8.08;;;;;;;11.14;50.54;98594.27;1617594;87;21139;-65
2022/01/31 07:42:53;;;;;;;14.33;7.67;;;;;;;11.18;50.22;98578.45;1608633;87;22486;-67
2022/01/31 07:45:22;;;;;;;13.83;9.13;;;;;;;11.07;50.52;98581.84;1611005;87;21014;-60
2022/01/31 07:47:48;;;;;;;13.48;9.05;;;;;;;11.06;50.94;98577.63;1624315;87;21085;-66
2022/01/31 07:50:15;;;;;;;17.25;10.85;;;;;;;11.27;50.99;98574.97;1617707;87;20999;-71
2022/01/31 07:52:43;;;;;;;12.95;8.93;;;;;;;11.34;51.01;98571.73;1620919;87;21148;-67
2022/01/31 07:55:11;;;;;;;15.28;9.33;;;;;;;11.44;50.97;98576.66;1619682;87;21130;-64
2022/01/31 07:57:41;;;;;;;13.43;8.48;;;;;;;11.68;50.54;98567.47;1616185;87;21032;-67
2022/01/31 08:00:09;;;;;;;13.15;8.33;;;;;;;11.71;50.32;98567.53;1615420;87;22215;-70
2022/01/31 08:02:40;;;;;;;14.28;9.10;;;;;;;11.76;50.08;98568.41;1619105;85;21258;-61
2022/01/31 08:05:09;;;;;;;12.33;9.45;;;;;;;11.88;49.97;98566.58;1621203;87;21097;-61
2022/01/31 08:07:37;;;;;;;15.32;10.10;;;;;;;11.92;50.07;98568.20;1617546;87;21089;-63
2022/01/31 08:10:05;;;;;;;14.87;9.58;;;;;;;11.93;49.95;98563.26;1620050;87;21103;-73
2022/01/31 08:12:35;;;;;;;11.85;8.43;;;;;;;12.01;50.05;98559.48;1620996;87;22577;-61
2022/01/31 08:15:04;;;;;;;12.50;8.98;;;;;;;12.03;50.07;98566.06;1618777;87;21050;-72
2022/01/31 08:17:30;;;;;;;15.63;10.03;;;;;;;12.14;49.90;98565.73;1624739;87;21628;-62
2022/01/31 08:19:57;;;;;;;12.50;9.25;;;;;;;12.29;49.63;98557.38;1627050;87;21105;-74
2022/01/31 08:22:24;;;;;;;14.80;9.78;;;;;;;12.46;49.39;98557.38;1621773;87;21799;-61
2022/01/31 08:24:51;;;;;;;13.93;9.73;;;;;;;12.56;49.06;98569.31;1625973;87;21114;-61
2022/01/31 08:27:19;;;;;;;14.43;9.83;;;;;;;12.55;49.12;98559.38;1624257;87;21947;-62
2022/01/31 08:29:48;;;;;;;13.40;9.65;;;;;;;13.09;48.13;98555.73;1626721;87;21595;-64
2022/01/31 08:32:20;;;;;;;13.50;9.73;;;;;;;13.05;47.94;98552.02;1623797;87;21111;-63
2022/01/31 08:37:28;;;;;;;13.72;9.28;;;;;;;13.33;47.63;98549.82;1626101;87;21098;-62
2022/01/31 08:39:54;;;;;;;15.25;10.25;;;;;;;13.29;47.31;98553.92;1626800;87;21003;-67
2022/01/31 08:42:21;;;;;;;13.53;9.50;;;;;;;13.34;47.36;98551.39;1624773;87;21039;-61
2022/01/31 08:44:47;;;;;;;11.68;8.08;;;;;;;13.37;47.19;98539.14;1625541;87;20967;-60
2022/01/31 08:47:14;;;;;;;13.18;9.10;;;;;;;13.44;47.13;98536.84;1624796;87;21580;-61
2022/01/31 08:49:40;;;;;;;12.75;9.03;;;;;;;13.39;47.05;98534.95;1624461;87;21133;-66
2022/01/31 08:52:07;;;;;;;12.85;8.95;;;;;;;13.31;47.21;98521.78;1624521;87;20990;-60
2022/01/31 08:54:34;;;;;;;12.88;8.83;;;;;;;13.70;46.61;98531.38;1622606;87;21080;-60
2022/01/31 08:57:01;;;;;;;12.05;7.87;;;;;;;13.94;46.29;98527.47;1625415;87;21094;-64
2022/01/31 08:59:28;;;;;;;10.65;8.08;;;;;;;13.88;46.23;98527.92;1559415;90;21556;-61
2022/01/31 09:02:06;;;;;;;10.88;7.85;;;;;;;14.07;45.91;98530.98;1596611;89;22803;-60
2022/01/31 09:04:35;;;;;;;11.53;8.23;;;;;;;14.03;45.67;98522.56;1647167;85;21008;-60
2022/01/31 09:07:02;;;;;;;11.88;8.18;;;;;;;14.10;45.45;98527.09;1649741;85;21121;-60
2022/01/31 09:09:30;;;;;;;11.30;7.83;;;;;;;14.08;45.47;98524.70;1598545;88;21062;-63
2022/01/31 09:11:58;;;;;;;11.25;8.10;;;;;;;13.94;45.73;98525.34;1595480;88;21137;-63
2022/01/31 09:14:26;;;;;;;10.90;7.53;;;;;;;14.14;45.68;98522.14;1593763;88;21224;-62
2022/01/31 09:16:53;;;;;;;13.88;8.55;;;;;;;14.24;45.58;98518.28;1598548;88;21122;-60
2022/01/31 09:19:20;;;;;;;12.75;7.75;;;;;;;14.16;45.51;98529.22;1595825;88;21569;-67
2022/01/31 09:21:47;;;;;;;11.40;7.22;;;;;;;14.33;45.28;98521.52;1657257;85;22100;-62
2022/01/31 09:24:13;;;;;;;9.53;6.50;;;;;;;14.70;44.36;98522.10;1653878;85;20978;-68
2022/01/31 09:26:40;;;;;;;11.60;8.40;;;;;;;14.79;44.01;98515.85;1649777;85;21618;-62
2022/01/31 09:29:06;;;;;;;10.50;7.30;;;;;;;14.68;43.94;98514.98;1593834;88;21552;-60
2022/01/31 09:31:33;;;;;;;9.40;7.20;;;;;;;14.56;44.18;98503.90;1593885;88;21160;-60
2022/01/31 09:34:00;;;;;;;12.23;7.62;;;;;;;14.64;43.94;98506.58;1597665;88;22035;-60
2022/01/31 09:36:27;;;;;;;11.03;7.50;;;;;;;14.66;43.77;98513.16;1595541;88;21043;-62
2022/01/31 09:38:54;;;;;;;9.70;7.00;;;;;;;14.81;43.64;98513.75;1596754;88;21146;-60
2022/01/31 09:41:24;;;;;;;10.45;6.53;;;;;;;14.73;43.69;98516.33;1596526;88;21137;-59
2022/01/31 09:48:44;;;;;;;9.73;7.03;;;;;;;14.94;43.01;98511.22;1599878;88;21016;-61
2022/01/31 09:51:19;;;;;;;8.70;6.25;;;;;;;14.76;43.17;98508.48;1593264;88;21176;-62
2022/01/31 09:54:00;;;;;;;8.25;5.70;;;;;;;14.97;42.80;98502.84;1599702;88;21036;-61
2022/01/31 09:56:32;;;;;;;8.40;5.55;;;;;;;15.17;42.64;98506.87;1597259;88;22158;-64
2022/01/31 09:58:59;;;;;;;9.08;5.83;;;;;;;15.38;42.43;98506.95;1592986;88;21171;-65
2022/01/31 10:01:30;;;;;;;7.85;5.35;;;;;;;15.41;42.60;98513.01;1598901;88;21170;-67
2022/01/31 10:04:14;;;;;;;8.80;5.75;;;;;;;15.52;42.67;98505.44;1599020;88;21235;-64
2022/01/31 10:06:40;;;;;;;9.10;6.45;;;;;;;15.48;42.68;98501.75;1627732;87;21659;-59
2022/01/31 10:09:17;;;;;;;8.38;5.85;;;;;;;15.47;42.59;98502.80;1603464;89;21243;-61
2022/01/31 10:12:22;;;;;;;10.25;5.65;;;;;;;15.22;42.71;98493.77;1665325;85;21094;-61
2022/01/31 10:17:33;;;;;;;8.88;6.22;;;;;;;13.46;45.95;98506.78;1624524;87;21046;-59
2022/01/31 10:20:11;;;;;;;20.82;13.38;;;;;;;13.62;46.00;98506.42;1650340;85;21026;-59
2022/01/31 10:22:39;;;;;;;9.13;6.35;;;;;;;13.69;46.33;98509.65;1632766;85;20931;-60
2022/01/31 10:25:11;;;;;;;9.40;6.55;;;;;;;13.86;46.45;98503.00;1656078;85;21079;-60
2022/01/31 10:27:37;;;;;;;;;;;;;;;14.02;46.84;98498.72;1607087;88;21126;-61
2022/01/31 10:30:10;;;;;;;9.05;5.58;;;;;;;14.01;46.90;98495.28;1629387;87;21109;-66
2022/01/31 10:32:40;;;;;;;10.20;6.75;;;;;;;14.18;46.76;98499.64;1632328;87;21031;-60
2022/01/31 10:35:10;;;;;;;7.35;5.47;;;;;;;14.19;46.80;98509.08;1624779;87;21643;-61
2022/01/31 10:37:39;;;;;;;7.62;5.90;;;;;;;14.27;46.29;98504.69;1629782;87;21506;-63
2022/01/31 10:45:55;;;;;;;7.65;5.50;;;;;;;13.96;46.25;98510.18;1660921;86;21363;-59
2022/01/31 10:56:55;;;;;;;7.00;4.97;;;;;;;12.68;47.64;98520.88;1600993;89;21159;-61
2022/01/31 10:59:39;;;;;;;8.45;5.30;;;;;;;12.58;48.07;98512.38;1645191;86;21291;-67
2022/01/31 11:02:10;;;;;;;9.88;6.45;;;;;;;12.36;48.75;98520.14;1641792;85;21119;-69
2022/01/31 11:04:39;;;;;;;9.25;6.42;;;;;;;12.10;49.69;98521.02;1645216;86;22429;-62
2022/01/31 11:07:13;;;;;;;8.38;5.97;;;;;;;12.06;50.38;98517.80;1649237;85;21092;-61
2022/01/31 11:09:42;;;;;;;10.63;7.70;;;;;;;12.37;50.70;98525.63;1644237;86;21662;-63
2022/01/31 11:12:10;;;;;;;8.73;6.53;;;;;;;12.60;51.26;98511.61;1644848;85;21058;-63
2022/01/31 11:14:41;;;;;;;10.80;7.72;;;;;;;12.22;52.30;98520.95;1647384;85;21143;-59
2022/01/31 11:17:13;;;;;;;15.30;10.25;;;;;;;12.32;52.95;98510.67;1643499;85;21402;-60
2022/01/31 11:19:47;;;;;;;24.65;18.48;;;;;;;12.60;52.99;98512.41;1649606;85;21136;-64
2022/01/31 11:22:16;;;;;;;22.65;16.60;;;;;;;12.82;52.67;98507.23;1592640;89;21130;-61
2022/01/31 11:24:51;;;;;;;19.75;15.18;;;;;;;13.08;51.76;98501.84;1650997;85;21026;-62
2022/01/31 11:27:22;;;;;;;15.10;11.25;;;;;;;13.25;50.77;98501.80;1644098;86;21015;-60
2022/01/31 11:29:55;;;;;;;17.10;12.98;;;;;;;13.30;49.86;98501.89;1651456;86;20959;-67
2022/01/31 11:32:21;;;;;;;22.55;15.65;;;;;;;13.20;49.43;98493.88;1655401;85;21863;-61
2022/01/31 11:34:47;;;;;;;40.67;24.15;;;;;;;13.00;49.41;98502.78;1592921;88;21151;-60
2022/01/31 11:37:17;;;;;;;24.90;15.90;;;;;;;13.17;49.21;98481.80;1639534;85;21023;-64
2022/01/31 11:39:46;;;;;;;15.40;10.40;;;;;;;13.25;48.79;98476.16;1646936;86;21117;-63
2022/01/31 11:42:13;;;;;;;27.73;18.80;;;;;;;13.41;47.80;98482.36;1649495;85;21567;-60
2022/01/31 11:45:05;;;;;;;39.55;24.47;;;;;;;13.13;48.04;98491.42;1643945;85;21085;-61
2022/01/31 11:47:32;;;;;;;20.37;13.78;;;;;;;13.39;47.86;98493.88;1663400;84;21161;-60
2022/01/31 11:50:02;;;;;;;17.98;13.15;;;;;;;13.64;46.83;98483.42;1597154;89;21171;-60
2022/01/31 11:52:47;;;;;;;9.90;6.72;;;;;;;13.66;46.64;98486.57;1628425;86;21565;-61
2022/01/31 11:55:19;;;;;;;10.53;7.62;;;;;;;13.60;46.31;98488.36;1657924;86;21509;-60
2022/01/31 11:57:48;;;;;;;9.60;6.12;;;;;;;13.81;46.23;98492.48;1656277;86;21508;-59
2022/01/31 12:00:16;;;;;;;9.78;5.83;;;;;;;13.93;45.57;98502.28;1653318;85;21217;-61
2022/01/31 12:02:49;;;;;;;12.28;6.37;;;;;;;13.52;45.94;98520.18;1652473;85;21070;-63
2022/01/31 12:05:21;;;;;;;7.85;5.97;;;;;;;13.26;46.29;98517.80;1656702;85;21018;-61